Time;durP1;ratioP1;P1;durP2;ratioP2;P2;SDS_P1;SDS_P2;PMS_P1;PMS_P2;Temp;Humidity;BMP_temperature;BMP_pressure;BME280_temperature;BME280_humidity;BME280_pressure;Samples;Min_cycle;Max_cycle;Signal;HPM_P1;HPM_P2
2023/12/30 00:00:32;;;;;;;20.70;19.42;;;;;;;;;;5062012;28;20048;-75
2023/12/30 00:03:02;;;;;;;24.55;22.63;;;;;;;;;;5060948;28;20513;-75
2023/12/30 00:05:33;;;;;;;21.52;20.23;;;;;;;;;;5061791;28;20048;-75
2023/12/30 00:08:05;;;;;;;21.55;20.25;;;;;;;;;;5061304;28;20041;-78
2023/12/30 00:10:39;;;;;;;24.63;22.63;;;;;;;;;;5063243;28;20059;-75
2023/12/30 00:13:09;;;;;;;19.05;17.67;;;;;;;;;;5062339;28;20063;-75
2023/12/30 00:15:39;;;;;;;26.33;24.88;;;;;;;;;;5061448;28;20494;-77
2023/12/30 00:18:09;;;;;;;22.95;21.38;;;;;;;;;;5061276;28;20036;-74
2023/12/30 00:20:40;;;;;;;20.17;18.73;;;;;;;;;;5064321;28;20056;-74
2023/12/30 00:23:13;;;;;;;21.50;20.05;;;;;;;;;;5065319;28;20040;-80
2023/12/30 00:25:43;;;;;;;20.45;18.70;;;;;;;;;;5065810;28;20056;-75
2023/12/30 00:28:14;;;;;;;23.42;21.85;;;;;;;;;;5066364;28;20415;-74
2023/12/30 00:30:45;;;;;;;20.50;19.17;;;;;;;;;;5066120;28;20497;-75
2023/12/30 00:33:18;;;;;;;25.95;23.95;;;;;;;;;;5064417;28;20068;-75
2023/12/30 00:35:48;;;;;;;22.40;20.42;;;;;;;;;;5065241;28;20064;-77
2023/12/30 00:38:18;;;;;;;22.13;20.88;;;;;;;;;;5064313;28;20052;-76
2023/12/30 00:40:54;;;;;;;24.13;22.15;;;;;;;;;;5065464;28;20048;-75
2023/12/30 00:43:25;;;;;;;23.27;21.67;;;;;;;;;;5064937;28;20438;-74
2023/12/30 00:45:55;;;;;;;25.27;23.55;;;;;;;;;;5064254;28;20060;-76
2023/12/30 00:48:26;;;;;;;19.52;18.02;;;;;;;;;;5065311;28;20055;-75
2023/12/30 00:50:57;;;;;;;21.98;20.63;;;;;;;;;;5062981;28;20059;-75
2023/12/30 00:53:29;;;;;;;22.77;21.08;;;;;;;;;;5062488;28;20056;-74
2023/12/30 00:55:59;;;;;;;25.13;23.52;;;;;;;;;;5061882;28;20056;-75
2023/12/30 00:58:31;;;;;;;25.35;23.58;;;;;;;;;;5062117;28;20076;-76
2023/12/30 01:01:02;;;;;;;24.88;23.38;;;;;;;;;;5063259;28;20056;-74
2023/12/30 01:03:33;;;;;;;23.13;21.13;;;;;;;;;;5064850;28;20056;-75
2023/12/30 01:06:04;;;;;;;28.13;26.05;;;;;;;;;;5063548;28;20052;-76
2023/12/30 01:08:35;;;;;;;25.73;23.85;;;;;;;;;;5064155;28;20743;-76
2023/12/30 01:11:08;;;;;;;24.33;22.58;;;;;;;;;;5063198;28;20640;-75
2023/12/30 01:13:38;;;;;;;25.48;23.77;;;;;;;;;;5064633;28;20044;-74
2023/12/30 01:16:08;;;;;;;26.00;23.98;;;;;;;;;;5065058;28;20747;-75
2023/12/30 01:18:40;;;;;;;22.98;20.90;;;;;;;;;;5064755;28;20036;-74
2023/12/30 01:21:11;;;;;;;27.90;25.10;;;;;;;;;;5064770;28;20049;-75
2023/12/30 01:23:42;;;;;;;28.00;25.50;;;;;;;;;;5064652;28;20059;-75
2023/12/30 01:26:13;;;;;;;27.88;25.75;;;;;;;;;;5063241;28;20064;-77
2023/12/30 01:28:43;;;;;;;19.00;17.58;;;;;;;;;;5064776;28;20055;-74
2023/12/30 01:31:17;;;;;;;22.15;20.42;;;;;;;;;;5065208;28;20036;-73
2023/12/30 01:33:49;;;;;;;22.67;21.27;;;;;;;;;;5063588;28;20056;-77
2023/12/30 01:36:20;;;;;;;22.42;20.95;;;;;;;;;;5065031;28;20051;-75
2023/12/30 01:38:51;;;;;;;25.05;22.90;;;;;;;;;;5064560;28;20048;-75
2023/12/30 01:41:23;;;;;;;25.45;23.52;;;;;;;;;;5064561;28;20049;-75
2023/12/30 01:43:53;;;;;;;24.02;22.20;;;;;;;;;;5063180;28;20056;-76
2023/12/30 01:46:24;;;;;;;22.25;20.15;;;;;;;;;;5064689;28;20044;-76
2023/12/30 01:48:54;;;;;;;24.40;22.73;;;;;;;;;;5063766;28;20052;-76
2023/12/30 01:51:26;;;;;;;24.85;22.75;;;;;;;;;;5062812;28;20048;-73
2023/12/30 01:53:58;;;;;;;25.10;22.75;;;;;;;;;;5062325;28;20063;-75
2023/12/30 01:56:28;;;;;;;25.27;23.15;;;;;;;;;;5062268;28;20055;-75
2023/12/30 01:59:00;;;;;;;21.83;20.23;;;;;;;;;;5062210;28;20059;-76
2023/12/30 02:01:31;;;;;;;23.15;21.35;;;;;;;;;;5062887;28;20052;-74
2023/12/30 02:04:01;;;;;;;29.23;26.30;;;;;;;;;;5063525;28;20515;-74
2023/12/30 02:06:32;;;;;;;25.13;23.35;;;;;;;;;;5063626;28;20052;-73
2023/12/30 02:09:02;;;;;;;27.25;25.15;;;;;;;;;;5063958;28;20044;-75
2023/12/30 02:11:34;;;;;;;24.45;22.77;;;;;;;;;;5062051;28;20052;-75
2023/12/30 02:14:29;;;;;;;26.50;24.30;;;;;;;;;;5062670;28;20079;-75
2023/12/30 02:17:00;;;;;;;24.38;22.75;;;;;;;;;;5063574;28;20048;-74
2023/12/30 02:19:30;;;;;;;20.77;19.48;;;;;;;;;;5062484;28;20040;-74
2023/12/30 02:22:02;;;;;;;20.98;19.48;;;;;;;;;;5063097;28;20045;-75
2023/12/30 02:24:33;;;;;;;24.80;22.55;;;;;;;;;;5061653;28;20708;-76
2023/12/30 02:27:04;;;;;;;23.02;21.50;;;;;;;;;;5061426;28;20056;-75
2023/12/30 02:29:35;;;;;;;22.50;20.95;;;;;;;;;;5063840;28;20037;-75
2023/12/30 02:32:07;;;;;;;25.63;23.17;;;;;;;;;;5061892;28;20063;-75
2023/12/30 02:34:38;;;;;;;25.75;23.92;;;;;;;;;;5063542;28;20053;-74
2023/12/30 02:37:08;;;;;;;21.42;19.77;;;;;;;;;;5061957;28;20060;-76
2023/12/30 02:39:38;;;;;;;24.67;23.15;;;;;;;;;;5062362;28;20055;-75
2023/12/30 02:42:09;;;;;;;24.90;23.23;;;;;;;;;;5062213;28;20063;-74
2023/12/30 02:44:41;;;;;;;26.10;24.05;;;;;;;;;;5061687;28;20045;-75
2023/12/30 02:47:11;;;;;;;24.33;22.40;;;;;;;;;;5061388;28;20052;-74
2023/12/30 02:49:44;;;;;;;22.00;20.13;;;;;;;;;;5061319;28;20523;-76
2023/12/30 02:52:14;;;;;;;23.27;21.35;;;;;;;;;;5062923;28;20044;-77
2023/12/30 02:54:47;;;;;;;22.30;20.65;;;;;;;;;;5061463;28;20053;-75
2023/12/30 02:57:18;;;;;;;20.88;19.17;;;;;;;;;;5062339;28;20677;-74
2023/12/30 02:59:48;;;;;;;23.92;22.23;;;;;;;;;;5062669;28;20052;-75
2023/12/30 03:02:18;;;;;;;23.98;21.77;;;;;;;;;;5062910;28;20040;-74
2023/12/30 03:04:49;;;;;;;23.23;21.25;;;;;;;;;;5062300;28;20052;-74
2023/12/30 03:07:19;;;;;;;23.77;21.48;;;;;;;;;;5062906;28;20054;-76
2023/12/30 03:09:51;;;;;;;24.52;22.80;;;;;;;;;;5060796;28;20419;-76
2023/12/30 03:12:22;;;;;;;21.05;19.58;;;;;;;;;;5062593;28;20438;-76
2023/12/30 03:14:53;;;;;;;24.25;22.60;;;;;;;;;;5062136;28;20055;-74
2023/12/30 03:17:24;;;;;;;20.52;19.08;;;;;;;;;;5062556;28;20051;-74
2023/12/30 03:19:55;;;;;;;20.17;18.90;;;;;;;;;;5062575;28;20052;-74
2023/12/30 03:22:26;;;;;;;18.10;16.73;;;;;;;;;;5067047;28;20052;-75
2023/12/30 03:24:56;;;;;;;21.35;19.52;;;;;;;;;;5067390;28;20059;-75
2023/12/30 03:27:27;;;;;;;20.67;19.15;;;;;;;;;;5064428;28;20809;-73
2023/12/30 03:29:58;;;;;;;23.45;21.33;;;;;;;;;;5066013;28;20063;-75
2023/12/30 03:32:31;;;;;;;19.75;17.45;;;;;;;;;;5060994;28;20052;-76
2023/12/30 03:35:01;;;;;;;22.83;19.40;;;;;;;;;;5062486;28;20416;-76
2023/12/30 03:37:32;;;;;;;22.00;19.98;;;;;;;;;;5062641;28;20051;-73
2023/12/30 03:40:04;;;;;;;24.85;22.80;;;;;;;;;;5060780;28;20060;-76
2023/12/30 03:42:35;;;;;;;22.88;20.48;;;;;;;;;;5062347;28;20044;-74
2023/12/30 03:45:05;;;;;;;20.80;18.88;;;;;;;;;;5060451;28;20504;-74
2023/12/30 03:47:37;;;;;;;21.92;19.73;;;;;;;;;;5062393;28;20044;-74
2023/12/30 03:50:09;;;;;;;17.50;15.90;;;;;;;;;;5061740;28;20072;-75
2023/12/30 03:52:39;;;;;;;22.30;20.27;;;;;;;;;;5061142;28;20419;-76
2023/12/30 03:55:09;;;;;;;22.15;19.77;;;;;;;;;;5061657;28;20434;-74
2023/12/30 03:57:40;;;;;;;18.40;16.90;;;;;;;;;;5060299;28;20518;-73
2023/12/30 04:00:12;;;;;;;24.83;22.42;;;;;;;;;;5062021;28;20682;-76
2023/12/30 04:02:43;;;;;;;21.17;19.42;;;;;;;;;;5061615;28;20045;-76
2023/12/30 04:05:13;;;;;;;26.45;22.42;;;;;;;;;;5061898;28;20483;-76
2023/12/30 04:07:45;;;;;;;23.42;21.73;;;;;;;;;;5061242;28;20051;-75
2023/12/30 04:10:17;;;;;;;24.38;22.52;;;;;;;;;;5060517;28;20526;-75
2023/12/30 04:12:48;;;;;;;25.42;23.70;;;;;;;;;;5061613;28;20443;-76
2023/12/30 04:15:18;;;;;;;26.67;24.25;;;;;;;;;;5061125;28;20079;-74
2023/12/30 04:17:49;;;;;;;24.75;22.83;;;;;;;;;;5060375;28;20060;-75
2023/12/30 04:20:20;;;;;;;24.98;22.98;;;;;;;;;;5061581;28;20503;-75
2023/12/30 04:22:50;;;;;;;23.23;21.08;;;;;;;;;;5060885;28;20051;-75
2023/12/30 04:25:21;;;;;;;28.27;25.95;;;;;;;;;;5061049;28;20044;-75
2023/12/30 04:27:51;;;;;;;26.65;23.92;;;;;;;;;;5060034;28;20052;-73
2023/12/30 04:30:22;;;;;;;27.13;24.60;;;;;;;;;;5060577;28;20057;-75
2023/12/30 04:32:53;;;;;;;22.23;19.55;;;;;;;;;;5060299;28;20454;-74
2023/12/30 04:35:25;;;;;;;20.63;18.85;;;;;;;;;;5060023;28;20052;-75
2023/12/30 04:37:55;;;;;;;23.85;21.48;;;;;;;;;;5060309;28;20052;-74
2023/12/30 04:40:25;;;;;;;22.85;20.65;;;;;;;;;;5059671;28;20614;-76
2023/12/30 04:42:57;;;;;;;25.70;23.60;;;;;;;;;;5060834;28;20055;-75
2023/12/30 04:45:29;;;;;;;25.83;23.83;;;;;;;;;;5060279;28;20041;-75
2023/12/30 04:47:59;;;;;;;25.27;23.60;;;;;;;;;;5044732;28;20551;-76
2023/12/30 04:50:30;;;;;;;22.33;20.58;;;;;;;;;;5060109;28;20055;-74
2023/12/30 04:53:00;;;;;;;27.90;25.92;;;;;;;;;;5060016;28;20049;-74
2023/12/30 04:55:31;;;;;;;24.38;22.75;;;;;;;;;;5059787;28;20061;-74
2023/12/30 04:58:03;;;;;;;23.85;22.15;;;;;;;;;;5059443;28;20060;-77
2023/12/30 05:00:34;;;;;;;24.33;22.63;;;;;;;;;;5060913;28;20048;-74
2023/12/30 05:03:04;;;;;;;22.63;20.48;;;;;;;;;;5061174;28;20056;-75
2023/12/30 05:05:37;;;;;;;23.10;21.23;;;;;;;;;;5063978;28;20439;-74
2023/12/30 05:08:08;;;;;;;25.85;23.83;;;;;;;;;;5064584;28;20049;-76
2023/12/30 05:10:39;;;;;;;22.73;20.73;;;;;;;;;;5064296;28;20055;-76
2023/12/30 05:13:09;;;;;;;24.90;23.20;;;;;;;;;;5064200;28;20075;-75
2023/12/30 05:15:40;;;;;;;25.45;22.98;;;;;;;;;;5064512;28;20059;-73
2023/12/30 05:18:12;;;;;;;31.27;22.55;;;;;;;;;;5063168;28;20063;-73
2023/12/30 05:20:43;;;;;;;24.40;22.33;;;;;;;;;;5064867;28;20388;-74
2023/12/30 05:23:14;;;;;;;32.03;29.65;;;;;;;;;;5064740;28;20044;-75
2023/12/30 05:25:46;;;;;;;22.23;19.17;;;;;;;;;;5064448;28;20044;-76
2023/12/30 05:28:17;;;;;;;24.92;19.77;;;;;;;;;;5064267;28;20056;-75
2023/12/30 05:30:47;;;;;;;20.90;18.80;;;;;;;;;;5063363;28;20052;-77
2023/12/30 05:33:17;;;;;;;22.15;20.27;;;;;;;;;;5064156;28;20044;-74
2023/12/30 05:35:49;;;;;;;23.50;20.45;;;;;;;;;;5063379;28;20515;-75
2023/12/30 05:38:20;;;;;;;24.73;19.08;;;;;;;;;;5064827;28;20049;-76
2023/12/30 05:40:51;;;;;;;20.95;18.80;;;;;;;;;;5064295;28;20047;-76
2023/12/30 05:43:21;;;;;;;24.90;22.00;;;;;;;;;;5063966;28;20049;-76
2023/12/30 05:45:55;;;;;;;20.10;18.58;;;;;;;;;;5063915;28;20048;-74
2023/12/30 05:48:25;;;;;;;21.20;19.38;;;;;;;;;;5062660;28;20085;-76
2023/12/30 05:50:56;;;;;;;22.45;20.45;;;;;;;;;;5063926;28;20037;-73
2023/12/30 05:53:26;;;;;;;21.65;19.10;;;;;;;;;;5064774;28;20053;-74
2023/12/30 05:55:57;;;;;;;20.52;17.08;;;;;;;;;;5064050;28;20040;-72
2023/12/30 05:58:31;;;;;;;21.63;18.95;;;;;;;;;;5064050;28;20053;-76
2023/12/30 06:01:02;;;;;;;19.02;17.50;;;;;;;;;;5063965;28;20056;-74
2023/12/30 06:03:35;;;;;;;22.15;18.58;;;;;;;;;;5063926;28;20059;-75
2023/12/30 06:06:05;;;;;;;23.30;19.02;;;;;;;;;;5063504;28;20055;-75
2023/12/30 06:08:36;;;;;;;21.35;18.95;;;;;;;;;;5063612;28;20051;-75
2023/12/30 06:11:07;;;;;;;21.40;19.27;;;;;;;;;;5063840;28;20048;-74
2023/12/30 06:13:40;;;;;;;25.63;20.83;;;;;;;;;;5063276;28;20055;-74
2023/12/30 06:16:11;;;;;;;17.27;15.75;;;;;;;;;;5062210;28;20046;-74
2023/12/30 06:18:41;;;;;;;19.85;15.95;;;;;;;;;;5062230;28;20059;-75
2023/12/30 06:21:13;;;;;;;20.25;16.60;;;;;;;;;;5064219;28;20052;-75
2023/12/30 06:23:43;;;;;;;20.90;17.10;;;;;;;;;;5063498;28;20055;-76
2023/12/30 06:26:14;;;;;;;18.08;16.48;;;;;;;;;;5063286;28;20523;-75
2023/12/30 06:28:45;;;;;;;20.98;18.83;;;;;;;;;;5061982;28;20063;-75
2023/12/30 06:31:16;;;;;;;24.13;20.70;;;;;;;;;;5063314;28;20036;-74
2023/12/30 06:33:47;;;;;;;20.20;17.55;;;;;;;;;;5062649;28;20036;-73
2023/12/30 06:36:22;;;;;;;22.58;20.60;;;;;;;;;;5063312;28;20089;-75
2023/12/30 06:38:53;;;;;;;24.17;20.40;;;;;;;;;;5063485;28;20036;-73
2023/12/30 06:41:24;;;;;;;23.38;20.23;;;;;;;;;;5063170;28;20044;-72
2023/12/30 06:43:54;;;;;;;19.38;17.67;;;;;;;;;;5062995;28;20040;-73
2023/12/30 06:46:25;;;;;;;25.52;23.42;;;;;;;;;;5062399;28;20401;-74
2023/12/30 06:48:56;;;;;;;25.85;21.58;;;;;;;;;;5062962;28;20063;-75
2023/12/30 06:51:28;;;;;;;23.17;21.35;;;;;;;;;;5062598;28;20399;-74
2023/12/30 06:53:58;;;;;;;19.88;18.25;;;;;;;;;;5062606;28;20044;-74
2023/12/30 06:56:28;;;;;;;24.17;19.02;;;;;;;;;;5062225;28;20048;-73
2023/12/30 06:58:59;;;;;;;19.92;18.02;;;;;;;;;;5062662;28;20044;-74
2023/12/30 07:01:31;;;;;;;23.25;21.15;;;;;;;;;;5062501;28;20048;-76
2023/12/30 07:04:03;;;;;;;23.90;13.52;;;;;;;;;;5062617;28;20518;-75
2023/12/30 07:06:33;;;;;;;17.95;13.70;;;;;;;;;;5062695;28;20052;-74
2023/12/30 07:09:03;;;;;;;17.55;15.98;;;;;;;;;;5062911;28;20041;-73
2023/12/30 07:11:33;;;;;;;24.60;14.70;;;;;;;;;;5061261;28;20055;-73
2023/12/30 07:14:05;;;;;;;18.17;15.82;;;;;;;;;;5062477;28;20052;-73
2023/12/30 07:16:37;;;;;;;17.27;15.20;;;;;;;;;;5062666;28;20415;-75
2023/12/30 07:19:07;;;;;;;17.70;15.18;;;;;;;;;;5061605;28;20037;-74
2023/12/30 07:21:37;;;;;;;17.33;13.68;;;;;;;;;;5062089;28;20055;-75
2023/12/30 07:24:07;;;;;;;17.80;13.18;;;;;;;;;;5062033;28;20056;-73
2023/12/30 07:26:38;;;;;;;14.40;12.95;;;;;;;;;;5062061;28;20049;-74
2023/12/30 07:29:09;;;;;;;17.05;15.38;;;;;;;;;;5062240;28;20614;-74
2023/12/30 07:31:40;;;;;;;17.50;13.35;;;;;;;;;;5062321;28;20048;-73
2023/12/30 07:34:10;;;;;;;17.92;15.35;;;;;;;;;;5061782;28;20049;-74
2023/12/30 07:36:41;;;;;;;19.70;14.80;;;;;;;;;;5062639;28;20083;-74
2023/12/30 07:39:13;;;;;;;20.75;15.27;;;;;;;;;;5061649;28;20111;-74
2023/12/30 07:41:43;;;;;;;18.38;16.52;;;;;;;;;;5062052;28;20518;-73
2023/12/30 07:44:15;;;;;;;23.85;14.65;;;;;;;;;;5060501;28;20403;-73
2023/12/30 07:46:47;;;;;;;19.10;15.23;;;;;;;;;;5062291;28;20052;-75
2023/12/30 07:49:18;;;;;;;16.58;14.88;;;;;;;;;;5061975;28;20041;-75
2023/12/30 07:51:49;;;;;;;25.02;14.55;;;;;;;;;;5062052;28;20492;-74
2023/12/30 07:54:20;;;;;;;19.75;12.65;;;;;;;;;;5062459;28;20041;-74
2023/12/30 07:56:50;;;;;;;18.17;16.42;;;;;;;;;;5062870;28;20037;-74
2023/12/30 07:59:24;;;;;;;17.23;15.13;;;;;;;;;;5062056;28;20090;-75
2023/12/30 08:01:56;;;;;;;20.85;16.15;;;;;;;;;;5061895;28;20067;-74
2023/12/30 08:04:27;;;;;;;21.15;14.55;;;;;;;;;;5062566;28;20491;-75
2023/12/30 08:06:57;;;;;;;14.73;13.35;;;;;;;;;;5062055;28;20052;-74
2023/12/30 08:09:33;;;;;;;15.73;14.15;;;;;;;;;;5061804;28;20052;-73
2023/12/30 08:12:05;;;;;;;18.67;14.20;;;;;;;;;;5061979;28;20055;-75
2023/12/30 08:14:37;;;;;;;18.05;14.13;;;;;;;;;;5061530;28;20055;-75
2023/12/30 08:17:08;;;;;;;17.95;13.32;;;;;;;;;;5061715;28;20068;-73
2023/12/30 08:19:40;;;;;;;18.80;14.23;;;;;;;;;;5061696;28;20048;-74
2023/12/30 08:22:11;;;;;;;20.55;13.18;;;;;;;;;;5061377;28;20055;-75
2023/12/30 08:24:40;;;;;;;19.75;13.18;;;;;;;;;;5062263;28;20404;-73
2023/12/30 08:27:12;;;;;;;14.23;12.50;;;;;;;;;;5060104;28;20048;-74
2023/12/30 08:29:42;;;;;;;19.50;14.25;;;;;;;;;;5062754;28;20067;-73
2023/12/30 08:32:13;;;;;;;17.88;15.02;;;;;;;;;;5063151;28;20507;-74
2023/12/30 08:34:43;;;;;;;15.68;13.55;;;;;;;;;;5062344;28;20050;-73
2023/12/30 08:37:15;;;;;;;23.73;13.93;;;;;;;;;;5062710;28;20056;-76
2023/12/30 08:39:47;;;;;;;15.68;13.75;;;;;;;;;;5065911;28;20048;-74
2023/12/30 08:42:18;;;;;;;16.95;14.07;;;;;;;;;;5067979;28;20048;-75
2023/12/30 08:44:48;;;;;;;18.30;15.18;;;;;;;;;;5066679;28;20044;-74
2023/12/30 08:47:19;;;;;;;17.88;16.02;;;;;;;;;;5068319;28;20053;-74
2023/12/30 08:49:50;;;;;;;15.98;14.65;;;;;;;;;;5067536;28;20048;-74
2023/12/30 08:52:21;;;;;;;17.08;15.60;;;;;;;;;;5066743;28;20573;-74
2023/12/30 08:54:51;;;;;;;18.58;15.15;;;;;;;;;;5066119;28;20052;-73
2023/12/30 08:57:22;;;;;;;15.23;13.60;;;;;;;;;;5066543;28;20045;-73
2023/12/30 08:59:52;;;;;;;18.83;14.43;;;;;;;;;;5066402;28;20036;-74
2023/12/30 09:02:22;;;;;;;17.20;15.68;;;;;;;;;;5066610;28;20052;-73
2023/12/30 09:04:56;;;;;;;19.67;14.73;;;;;;;;;;5066529;28;20052;-74
2023/12/30 09:07:27;;;;;;;15.40;13.88;;;;;;;;;;5066089;28;20071;-75
2023/12/30 09:10:00;;;;;;;17.13;13.40;;;;;;;;;;5065940;28;20055;-74
2023/12/30 09:12:31;;;;;;;19.98;15.13;;;;;;;;;;5065385;28;20052;-73
2023/12/30 09:15:01;;;;;;;16.38;14.68;;;;;;;;;;5066368;28;20048;-74
2023/12/30 09:17:32;;;;;;;18.92;16.48;;;;;;;;;;5065948;28;20511;-74
2023/12/30 09:20:03;;;;;;;17.98;16.08;;;;;;;;;;5066744;28;20653;-74
2023/12/30 09:22:34;;;;;;;18.38;15.13;;;;;;;;;;5069470;28;20045;-73
2023/12/30 09:25:05;;;;;;;24.92;16.60;;;;;;;;;;5066456;28;20060;-74
2023/12/30 09:27:36;;;;;;;20.60;15.18;;;;;;;;;;5065177;28;20044;-74
2023/12/30 09:30:08;;;;;;;19.23;16.02;;;;;;;;;;5065215;28;20738;-74
2023/12/30 09:32:38;;;;;;;16.88;14.77;;;;;;;;;;5065099;28;20059;-73
2023/12/30 09:35:08;;;;;;;16.95;11.27;;;;;;;;;;5064582;28;20526;-72
2023/12/30 09:37:40;;;;;;;17.65;16.10;;;;;;;;;;5064941;28;20041;-74
2023/12/30 09:40:12;;;;;;;19.67;15.57;;;;;;;;;;5064991;28;20048;-74
2023/12/30 09:42:46;;;;;;;21.42;18.25;;;;;;;;;;5065476;28;20045;-75
2023/12/30 09:45:16;;;;;;;18.17;14.82;;;;;;;;;;5064711;28;20044;-75
2023/12/30 09:47:49;;;;;;;18.70;16.98;;;;;;;;;;5062993;28;20465;-74
2023/12/30 09:50:19;;;;;;;19.77;17.48;;;;;;;;;;5062325;28;20051;-75
2023/12/30 09:52:49;;;;;;;19.02;15.93;;;;;;;;;;5064037;28;20060;-73
2023/12/30 09:55:20;;;;;;;19.27;17.40;;;;;;;;;;5063919;28;20048;-74
2023/12/30 09:57:52;;;;;;;20.13;16.52;;;;;;;;;;5063986;28;20060;-74
2023/12/30 10:00:28;;;;;;;18.38;15.82;;;;;;;;;;5064171;28;20055;-74
2023/12/30 10:03:00;;;;;;;19.05;15.57;;;;;;;;;;5063421;28;20044;-74
2023/12/30 10:05:31;;;;;;;16.77;8.48;;;;;;;;;;5064218;28;20055;-74
2023/12/30 10:08:04;;;;;;;13.40;9.15;;;;;;;;;;5063538;28;20051;-74
2023/12/30 10:10:48;;;;;;;17.77;10.20;;;;;;;;;;5063276;28;20052;-74
2023/12/30 10:13:25;;;;;;;18.85;9.50;;;;;;;;;;5063609;28;20037;-75
2023/12/30 10:16:02;;;;;;;13.32;9.70;;;;;;;;;;5064056;28;20045;-75
2023/12/30 10:18:33;;;;;;;9.30;8.00;;;;;;;;;;5063031;28;20048;-75
2023/12/30 10:21:05;;;;;;;17.80;7.80;;;;;;;;;;5063096;28;20060;-74
2023/12/30 10:23:37;;;;;;;22.42;15.50;;;;;;;;;;5063301;28;20051;-75
2023/12/30 10:26:08;;;;;;;19.85;17.92;;;;;;;;;;5063044;28;20053;-75
2023/12/30 10:28:38;;;;;;;20.15;18.13;;;;;;;;;;5063935;28;20041;-74
2023/12/30 10:31:11;;;;;;;20.23;18.25;;;;;;;;;;5064801;28;20053;-75
2023/12/30 10:33:42;;;;;;;18.35;16.88;;;;;;;;;;5063045;28;20047;-74
2023/12/30 10:36:14;;;;;;;20.80;18.95;;;;;;;;;;5063092;28;20056;-74
2023/12/30 10:38:45;;;;;;;20.17;18.13;;;;;;;;;;5062801;28;20052;-74
2023/12/30 10:41:16;;;;;;;19.80;17.42;;;;;;;;;;5062917;28;20045;-75
2023/12/30 10:43:47;;;;;;;21.83;19.45;;;;;;;;;;5062941;28;20067;-75
2023/12/30 10:46:19;;;;;;;26.48;19.08;;;;;;;;;;5063208;28;20052;-75
2023/12/30 10:48:58;;;;;;;21.15;19.00;;;;;;;;;;5062229;28;20044;-74
2023/12/30 10:51:30;;;;;;;20.40;18.58;;;;;;;;;;5062765;28;20499;-78
2023/12/30 10:54:05;;;;;;;21.20;18.98;;;;;;;;;;5062849;28;20044;-74
2023/12/30 10:56:45;;;;;;;22.73;20.63;;;;;;;;;;5063063;28;20059;-74
2023/12/30 10:59:16;;;;;;;25.48;19.45;;;;;;;;;;5062613;28;20055;-75
2023/12/30 11:01:47;;;;;;;20.88;18.33;;;;;;;;;;5062492;28;20053;-74
2023/12/30 11:04:19;;;;;;;22.02;18.73;;;;;;;;;;5063266;28;20048;-75
2023/12/30 11:06:56;;;;;;;22.95;20.80;;;;;;;;;;5062018;28;20055;-74
2023/12/30 11:09:27;;;;;;;26.05;23.75;;;;;;;;;;5062283;28;20047;-79
2023/12/30 11:12:05;;;;;;;45.15;26.40;;;;;;;;;;5063029;28;20115;-73
2023/12/30 11:14:36;;;;;;;30.65;25.85;;;;;;;;;;5062971;28;20044;-75
2023/12/30 11:17:07;;;;;;;15.15;12.10;;;;;;;;;;5062217;28;20056;-75
2023/12/30 11:19:37;;;;;;;28.95;23.20;;;;;;;;;;5061693;28;20044;-74
2023/12/30 11:22:07;;;;;;;24.80;21.02;;;;;;;;;;5062623;28;20040;-75
2023/12/30 11:24:42;;;;;;;21.50;19.50;;;;;;;;;;5057802;28;20060;-76
2023/12/30 11:27:13;;;;;;;15.57;13.98;;;;;;;;;;5058947;28;20048;-74
2023/12/30 11:29:47;;;;;;;19.75;14.90;;;;;;;;;;5059774;28;20045;-74
2023/12/30 11:32:18;;;;;;;37.85;21.45;;;;;;;;;;5060486;28;20499;-76
2023/12/30 11:34:51;;;;;;;21.45;19.55;;;;;;;;;;5061917;28;20534;-75
2023/12/30 11:37:22;;;;;;;19.25;17.30;;;;;;;;;;5061447;28;20049;-80
2023/12/30 11:39:55;;;;;;;20.42;18.30;;;;;;;;;;5061710;28;20072;-75
2023/12/30 11:42:27;;;;;;;25.50;23.27;;;;;;;;;;5060697;28;20075;-76
2023/12/30 11:45:10;;;;;;;20.08;18.05;;;;;;;;;;5062106;28;20040;-74
2023/12/30 11:47:46;;;;;;;22.48;20.55;;;;;;;;;;5063748;28;20059;-74
2023/12/30 11:50:16;;;;;;;20.05;16.33;;;;;;;;;;5062078;28;20404;-75
2023/12/30 11:52:46;;;;;;;19.20;17.38;;;;;;;;;;5061474;28;20040;-77
2023/12/30 11:55:18;;;;;;;17.58;15.88;;;;;;;;;;5062387;28;20056;-75
2023/12/30 11:57:50;;;;;;;21.38;19.27;;;;;;;;;;5063002;28;20045;-74
2023/12/30 12:00:24;;;;;;;21.15;16.08;;;;;;;;;;5062603;28;20052;-76
2023/12/30 12:02:56;;;;;;;16.02;13.40;;;;;;;;;;5062143;28;20053;-74
2023/12/30 12:05:26;;;;;;;18.98;17.05;;;;;;;;;;5062928;28;20534;-74
2023/12/30 12:07:58;;;;;;;18.73;16.88;;;;;;;;;;5062883;28;20048;-75
2023/12/30 12:10:28;;;;;;;20.55;18.08;;;;;;;;;;5062102;28;20048;-75
2023/12/30 12:12:58;;;;;;;21.35;18.40;;;;;;;;;;5063838;28;20052;-74
2023/12/30 12:15:30;;;;;;;18.27;16.40;;;;;;;;;;5064369;28;20052;-75
2023/12/30 12:18:01;;;;;;;18.75;16.48;;;;;;;;;;5065515;28;20056;-74
2023/12/30 12:20:41;;;;;;;19.55;15.18;;;;;;;;;;5065646;28;20632;-75
2023/12/30 12:23:12;;;;;;;23.08;16.05;;;;;;;;;;5065811;28;20040;-75
2023/12/30 12:25:43;;;;;;;18.80;16.25;;;;;;;;;;5066078;28;20530;-75
2023/12/30 12:28:21;;;;;;;20.50;14.85;;;;;;;;;;5066075;28;20041;-74
2023/12/30 12:30:53;;;;;;;21.77;16.48;;;;;;;;;;5065561;28;20055;-75
2023/12/30 12:33:24;;;;;;;22.10;19.83;;;;;;;;;;5065327;28;20061;-77
2023/12/30 12:35:54;;;;;;;24.50;22.13;;;;;;;;;;5065165;28;20844;-75
2023/12/30 12:38:26;;;;;;;22.48;20.23;;;;;;;;;;5065022;28;20048;-78
2023/12/30 12:40:57;;;;;;;22.77;20.75;;;;;;;;;;5065867;28;20061;-76
2023/12/30 12:43:29;;;;;;;20.48;17.98;;;;;;;;;;5065561;28;20056;-78
2023/12/30 12:46:00;;;;;;;24.33;20.13;;;;;;;;;;5064814;28;20415;-78
2023/12/30 12:48:30;;;;;;;22.70;20.73;;;;;;;;;;5065078;28;20531;-83
2023/12/30 12:51:01;;;;;;;19.27;17.55;;;;;;;;;;5064587;28;20079;-75
2023/12/30 12:53:32;;;;;;;21.20;18.05;;;;;;;;;;5065169;28;20056;-79
2023/12/30 12:56:04;;;;;;;17.55;15.82;;;;;;;;;;5065343;28;20048;-74
2023/12/30 12:58:35;;;;;;;19.73;17.55;;;;;;;;;;5065290;28;20745;-74
2023/12/30 13:01:07;;;;;;;21.30;19.30;;;;;;;;;;5065147;28;20052;-77
2023/12/30 13:03:37;;;;;;;22.83;20.42;;;;;;;;;;5064500;28;20044;-75
2023/12/30 13:06:13;;;;;;;23.67;21.50;;;;;;;;;;5065462;28;20055;-75
2023/12/30 13:08:48;;;;;;;20.80;18.83;;;;;;;;;;5065499;28;20044;-74
2023/12/30 13:11:37;;;;;;;18.73;16.27;;;;;;;;;;5064870;28;20052;-74
2023/12/30 13:14:09;;;;;;;18.55;16.83;;;;;;;;;;5064370;28;20044;-76
2023/12/30 13:16:40;;;;;;;28.00;25.17;;;;;;;;;;5064954;28;20052;-76
2023/12/30 13:19:11;;;;;;;21.92;20.08;;;;;;;;;;5064779;28;20049;-75
2023/12/30 13:21:42;;;;;;;23.10;20.80;;;;;;;;;;5064492;28;20044;-75
2023/12/30 13:24:13;;;;;;;19.45;17.27;;;;;;;;;;5064398;28;20052;-76
2023/12/30 13:26:44;;;;;;;19.90;16.80;;;;;;;;;;5064357;28;20052;-79
2023/12/30 13:29:15;;;;;;;22.75;19.65;;;;;;;;;;5064430;28;20051;-74
2023/12/30 13:31:48;;;;;;;19.10;17.13;;;;;;;;;;5064027;28;20048;-75
2023/12/30 13:34:18;;;;;;;21.45;19.40;;;;;;;;;;5064391;28;20049;-77
2023/12/30 13:36:56;;;;;;;22.65;20.77;;;;;;;;;;5063717;28;20449;-78
2023/12/30 13:39:28;;;;;;;23.08;20.90;;;;;;;;;;5062818;28;20499;-76
2023/12/30 13:42:03;;;;;;;22.17;19.95;;;;;;;;;;5064207;28;20051;-75
2023/12/30 13:44:42;;;;;;;20.88;18.42;;;;;;;;;;5063811;28;20052;-76
2023/12/30 13:52:43;;;;;;;22.27;20.63;;;;;;;;;;5064560;28;20049;-76
2023/12/30 13:55:14;;;;;;;19.65;17.65;;;;;;;;;;5063853;28;20411;-81
2023/12/30 13:57:51;;;;;;;18.40;16.27;;;;;;;;;;5063910;28;20084;-76
2023/12/30 14:00:23;;;;;;;19.77;17.45;;;;;;;;;;5064078;28;20044;-77
2023/12/30 14:02:54;;;;;;;23.27;19.90;;;;;;;;;;5063895;28;20052;-75
2023/12/30 14:05:34;;;;;;;19.70;17.75;;;;;;;;;;5064427;28;20063;-74
2023/12/30 14:10:49;;;;;;;23.90;22.00;;;;;;;;;;5063563;28;20493;-76
2023/12/30 14:13:23;;;;;;;22.35;20.17;;;;;;;;;;5063189;28;20053;-76
2023/12/30 14:15:53;;;;;;;20.75;18.88;;;;;;;;;;5063566;28;20048;-74
2023/12/30 14:18:23;;;;;;;21.45;19.50;;;;;;;;;;5062889;28;20053;-76
2023/12/30 14:20:56;;;;;;;23.00;20.95;;;;;;;;;;5063519;28;20040;-77
2023/12/30 14:23:27;;;;;;;20.17;15.38;;;;;;;;;;5064183;28;20041;-80
2023/12/30 14:25:58;;;;;;;20.30;18.25;;;;;;;;;;5063427;28;20067;-79
2023/12/30 14:28:28;;;;;;;24.20;22.20;;;;;;;;;;5066873;28;20049;-76
2023/12/30 14:30:59;;;;;;;24.80;22.63;;;;;;;;;;5061626;28;20052;-76
2023/12/30 14:33:30;;;;;;;22.85;20.63;;;;;;;;;;5061797;28;20040;-76
2023/12/30 14:36:04;;;;;;;26.38;23.70;;;;;;;;;;5062746;28;20063;-77
2023/12/30 14:38:33;;;;;;;23.13;20.88;;;;;;;;;;5062088;28;20052;-75
2023/12/30 14:41:05;;;;;;;21.42;19.52;;;;;;;;;;5062935;28;20614;-74
2023/12/30 14:43:35;;;;;;;23.67;21.63;;;;;;;;;;5062532;28;20052;-75
2023/12/30 14:46:10;;;;;;;47.03;44.10;;;;;;;;;;5062688;28;20781;-76
2023/12/30 14:48:40;;;;;;;20.13;18.23;;;;;;;;;;5062545;28;20067;-75